Terminal Aerodrome Forecast
Issued by NWS Cleveland, OH

Home | Current Version | Previous Version | Graphics & Text | Print | Product List | Glossary Off
Versions: 1 2 3 4 5 6 7 8 9 10 11 12 13 14 15 16 17 18 19 20 21 22 23 24 25 26

000
FTUS41 KCLE 161100 CCA
TAFYNG
TAF COR
KYNG 161130Z 1612/1712 32004KT 3SM BR SCT002 OVC020
      TEMPO 1612/1614 1SM BR OVC002
     FM161400 33005KT 5SM BR BKN008 OVC012
     FM161500 33005KT P6SM SCT012 BKN025
     FM161600 33006KT P6SM BKN045
     FM161800 33008KT P6SM SCT035
     FM170100 31004KT P6SM SKC
     FM170900 11002KT 2SM BR SCT003=

USA.gov is the U.S. government's official web portal to all federal, state and local government web resources and services.